GLD1069 SBSN-SBBV
Flight info
| Callsign | GLD1069 |
|---|---|
| Flight time | 1h 12m |
| Altitude | 24000 |
| Route | EDPIM2A SOBID Z45 MUNIS DCT NEVDU DCT |
| Aircraft | B737/M-SDE2E3FGHIRWXY/LB1 |
Departure
| Time | 2026-04-21 03:00 |
|---|---|
| Airport | Santarém - Maestro Wilson Fonseca International Airport (SBSN) |
Arrival
| Time | 2026-04-21 04:13 |
|---|---|
| Airport | Atlas Brasil Cantanhede International Airport (SBBV) |
| Time | Latitude | Longitude | Altitude | Speed | Heading |
|---|---|---|---|---|---|
| 2026-04-21 02:20 | -2.42360 | -54.78507 | 205 ft | 0 kts | 155° |
| 2026-04-21 02:50 | -2.42359 | -54.78507 | 205 ft | 2 kts | 155° |
| 2026-04-21 02:50 | -2.42337 | -54.78515 | 210 ft | 4 kts | 184° |
| 2026-04-21 02:50 | -2.42314 | -54.78506 | 213 ft | 4 kts | 235° |
| 2026-04-21 02:51 | -2.42311 | -54.78501 | 212 ft | 1 kts | 245° |
| 2026-04-21 02:54 | -2.42313 | -54.78505 | 205 ft | 2 kts | 245° |
| 2026-04-21 02:54 | -2.42322 | -54.78525 | 214 ft | 5 kts | 242° |
| 2026-04-21 02:55 | -2.42348 | -54.78567 | 214 ft | 9 kts | 236° |
| 2026-04-21 02:55 | -2.42320 | -54.78626 | 213 ft | 12 kts | 315° |
| 2026-04-21 02:55 | -2.42249 | -54.78691 | 208 ft | 16 kts | 320° |
| 2026-04-21 02:55 | -2.42173 | -54.78770 | 209 ft | 15 kts | 299° |
| 2026-04-21 02:56 | -2.42172 | -54.78873 | 207 ft | 16 kts | 263° |
| 2026-04-21 02:56 | -2.42207 | -54.79103 | 210 ft | 18 kts | 261° |
| 2026-04-21 02:56 | -2.42230 | -54.79239 | 207 ft | 21 kts | 261° |
| 2026-04-21 02:57 | -2.42255 | -54.79390 | 204 ft | 23 kts | 261° |
| 2026-04-21 02:57 | -2.42281 | -54.79544 | 206 ft | 22 kts | 261° |
| 2026-04-21 02:57 | -2.42304 | -54.79690 | 210 ft | 21 kts | 261° |
| 2026-04-21 02:57 | -2.42326 | -54.79823 | 204 ft | 18 kts | 261° |
| 2026-04-21 02:58 | -2.42345 | -54.79941 | 207 ft | 16 kts | 260° |
| 2026-04-21 02:58 | -2.42365 | -54.80056 | 207 ft | 18 kts | 261° |
| 2026-04-21 02:58 | -2.42386 | -54.80185 | 205 ft | 20 kts | 261° |
| 2026-04-21 02:58 | -2.42443 | -54.80297 | 208 ft | 14 kts | 231° |
| 2026-04-21 02:59 | -2.42420 | -54.80333 | 208 ft | 2 kts | 28° |
| 2026-04-21 02:59 | -2.42409 | -54.80318 | 210 ft | 5 kts | 68° |
| 2026-04-21 02:59 | -2.42407 | -54.80310 | 204 ft | 0 kts | 79° |
| 2026-04-21 02:59 | -2.42407 | -54.80309 | 204 ft | 1 kts | 79° |
| 2026-04-21 03:00 | -2.42395 | -54.80239 | 206 ft | 37 kts | 81° |
| 2026-04-21 03:00 | -2.42311 | -54.79720 | 204 ft | 113 kts | 80° |
| 2026-04-21 03:00 | -2.42153 | -54.78756 | 244 ft | 167 kts | 80° |
| 2026-04-21 03:00 | -2.41958 | -54.77546 | 837 ft | 177 kts | 81° |
| 2026-04-21 03:01 | -2.41773 | -54.76357 | 1770 ft | 175 kts | 81° |
| 2026-04-21 03:01 | -2.41568 | -54.75064 | 2231 ft | 205 kts | 81° |
| 2026-04-21 03:01 | -2.41335 | -54.73538 | 2485 ft | 239 kts | 81° |
| 2026-04-21 03:01 | -2.40861 | -54.71858 | 3027 ft | 259 kts | 61° |
| 2026-04-21 03:02 | -2.39645 | -54.70511 | 3914 ft | 268 kts | 32° |
| 2026-04-21 03:02 | -2.37856 | -54.69946 | 4791 ft | 278 kts | 2° |
| 2026-04-21 03:02 | -2.35952 | -54.70315 | 5678 ft | 284 kts | 334° |
| 2026-04-21 03:02 | -2.34278 | -54.71355 | 6715 ft | 282 kts | 324° |
| 2026-04-21 03:03 | -2.32639 | -54.72458 | 7600 ft | 287 kts | 326° |
| 2026-04-21 03:03 | -2.30934 | -54.73542 | 8423 ft | 293 kts | 328° |
| 2026-04-21 03:03 | -2.29171 | -54.74588 | 9370 ft | 295 kts | 329° |
| 2026-04-21 03:03 | -2.27393 | -54.75562 | 10260 ft | 297 kts | 334° |
| 2026-04-21 03:04 | -2.25518 | -54.76496 | 10872 ft | 311 kts | 330° |
| 2026-04-21 03:04 | -2.23566 | -54.77628 | 11129 ft | 335 kts | 329° |
| 2026-04-21 03:04 | -2.21522 | -54.78826 | 11769 ft | 344 kts | 330° |
| 2026-04-21 03:04 | -2.19434 | -54.80015 | 12585 ft | 347 kts | 331° |
| 2026-04-21 03:05 | -2.17314 | -54.81189 | 13400 ft | 351 kts | 331° |
| 2026-04-21 03:05 | -2.15153 | -54.82369 | 14119 ft | 356 kts | 332° |
| 2026-04-21 03:05 | -2.12975 | -54.83573 | 14828 ft | 360 kts | 328° |
| 2026-04-21 03:05 | -2.11128 | -54.85274 | 15517 ft | 365 kts | 304° |
| 2026-04-21 03:06 | -2.10020 | -54.87570 | 16005 ft | 377 kts | 284° |
| 2026-04-21 03:06 | -2.09725 | -54.90237 | 16240 ft | 393 kts | 271° |
| 2026-04-21 03:06 | -2.09662 | -54.92994 | 16742 ft | 400 kts | 270° |
| 2026-04-21 03:06 | -2.09628 | -54.95787 | 17389 ft | 403 kts | 270° |
| 2026-04-21 03:07 | -2.09593 | -54.98608 | 18047 ft | 406 kts | 270° |
| 2026-04-21 03:07 | -2.09546 | -55.01434 | 18590 ft | 409 kts | 270° |
| 2026-04-21 03:07 | -2.09488 | -55.04261 | 19088 ft | 413 kts | 270° |
| 2026-04-21 03:07 | -2.09444 | -55.06202 | 19429 ft | 415 kts | 271° |
| 2026-04-21 03:08 | -2.09349 | -55.10048 | 20092 ft | 420 kts | 271° |
| 2026-04-21 03:08 | -2.09274 | -55.12975 | 20585 ft | 423 kts | 271° |
| 2026-04-21 03:08 | -2.09223 | -55.14966 | 20899 ft | 425 kts | 271° |
| 2026-04-21 03:08 | -2.09121 | -55.18900 | 21527 ft | 430 kts | 271° |
| 2026-04-21 03:09 | -2.09068 | -55.20922 | 21829 ft | 432 kts | 271° |
| 2026-04-21 03:09 | -2.08965 | -55.24923 | 22414 ft | 436 kts | 271° |
| 2026-04-21 03:09 | -2.08913 | -55.26972 | 22705 ft | 438 kts | 271° |
| 2026-04-21 03:09 | -2.08834 | -55.30037 | 23112 ft | 442 kts | 271° |
| 2026-04-21 03:10 | -2.08754 | -55.33117 | 23530 ft | 445 kts | 271° |
| 2026-04-21 03:10 | -2.08676 | -55.36172 | 23867 ft | 447 kts | 271° |
| 2026-04-21 03:10 | -2.08276 | -55.39269 | 23918 ft | 454 kts | 286° |
| 2026-04-21 03:10 | -2.06973 | -55.42158 | 23965 ft | 460 kts | 300° |
| 2026-04-21 03:11 | -2.05323 | -55.44941 | 23962 ft | 468 kts | 301° |
| 2026-04-21 03:11 | -2.03605 | -55.47737 | 24020 ft | 475 kts | 301° |
| 2026-04-21 03:11 | -2.01858 | -55.50566 | 24062 ft | 482 kts | 301° |
| 2026-04-21 03:11 | -2.00099 | -55.53438 | 24100 ft | 487 kts | 301° |
| 2026-04-21 03:12 | -1.98334 | -55.56348 | 24135 ft | 491 kts | 301° |
| 2026-04-21 03:12 | -1.96568 | -55.59288 | 24177 ft | 495 kts | 301° |
| 2026-04-21 03:12 | -1.94799 | -55.62251 | 24254 ft | 497 kts | 301° |
| 2026-04-21 03:12 | -1.93032 | -55.65220 | 24419 ft | 497 kts | 301° |
| 2026-04-21 03:13 | -1.91268 | -55.68185 | 24623 ft | 495 kts | 301° |
| 2026-04-21 03:13 | -1.89526 | -55.71116 | 25217 ft | 484 kts | 301° |
| 2026-04-21 03:13 | -1.87827 | -55.73972 | 25989 ft | 472 kts | 301° |
| 2026-04-21 03:13 | -1.86190 | -55.76722 | 26803 ft | 460 kts | 301° |
| 2026-04-21 03:14 | -1.84569 | -55.79445 | 27680 ft | 449 kts | 301° |
| 2026-04-21 03:14 | -1.82989 | -55.82098 | 28607 ft | 439 kts | 301° |
| 2026-04-21 03:14 | -1.81446 | -55.84686 | 29584 ft | 428 kts | 301° |
| 2026-04-21 03:14 | -1.79930 | -55.87231 | 30325 ft | 425 kts | 301° |
| 2026-04-21 03:15 | -1.78414 | -55.89775 | 30733 ft | 428 kts | 301° |
| 2026-04-21 03:15 | -1.76878 | -55.92351 | 31063 ft | 433 kts | 301° |
| 2026-04-21 03:15 | -1.75331 | -55.94947 | 31446 ft | 437 kts | 301° |
| 2026-04-21 03:15 | -1.73771 | -55.97565 | 31868 ft | 439 kts | 301° |
| 2026-04-21 03:16 | -1.72202 | -56.00197 | 32247 ft | 441 kts | 301° |
| 2026-04-21 03:16 | -1.70626 | -56.02842 | 32607 ft | 445 kts | 301° |
| 2026-04-21 03:16 | -1.69040 | -56.05503 | 32962 ft | 448 kts | 301° |
| 2026-04-21 03:16 | -1.67442 | -56.08184 | 33296 ft | 450 kts | 301° |
| 2026-04-21 03:17 | -1.65837 | -56.10878 | 33640 ft | 453 kts | 301° |
| 2026-04-21 03:17 | -1.64216 | -56.13598 | 33953 ft | 456 kts | 301° |
| 2026-04-21 03:17 | -1.62590 | -56.16326 | 34226 ft | 458 kts | 301° |
| 2026-04-21 03:17 | -1.60957 | -56.19066 | 34495 ft | 460 kts | 301° |
| 2026-04-21 03:18 | -1.59312 | -56.21825 | 34757 ft | 462 kts | 301° |
| 2026-04-21 03:18 | -1.57660 | -56.24597 | 34989 ft | 465 kts | 301° |
| 2026-04-21 03:18 | -1.55996 | -56.27390 | 35200 ft | 468 kts | 301° |
| 2026-04-21 03:18 | -1.54326 | -56.30192 | 35462 ft | 469 kts | 301° |
| 2026-04-21 03:19 | -1.52651 | -56.33001 | 35742 ft | 470 kts | 301° |
| 2026-04-21 03:19 | -1.50978 | -56.35809 | 35979 ft | 472 kts | 301° |
| 2026-04-21 03:19 | -1.49292 | -56.38631 | 36184 ft | 474 kts | 302° |
| 2026-04-21 03:19 | -1.47430 | -56.41302 | 36349 ft | 475 kts | 310° |
| 2026-04-21 03:20 | -1.45290 | -56.43829 | 36562 ft | 476 kts | 312° |
| 2026-04-21 03:20 | -1.43102 | -56.46317 | 36767 ft | 478 kts | 313° |
| 2026-04-21 03:20 | -1.40890 | -56.48801 | 36963 ft | 479 kts | 313° |
| 2026-04-21 03:20 | -1.38675 | -56.51292 | 37200 ft | 479 kts | 313° |
| 2026-04-21 03:21 | -1.36466 | -56.53793 | 37488 ft | 478 kts | 312° |
| 2026-04-21 03:21 | -1.34271 | -56.56295 | 37765 ft | 478 kts | 312° |
| 2026-04-21 03:21 | -1.32085 | -56.58799 | 37959 ft | 479 kts | 311° |
| 2026-04-21 03:21 | -1.29889 | -56.61323 | 37945 ft | 484 kts | 311° |
| 2026-04-21 03:22 | -1.25438 | -56.66449 | 37968 ft | 493 kts | 311° |
| 2026-04-21 03:22 | -1.20922 | -56.71651 | 37958 ft | 496 kts | 311° |
| 2026-04-21 03:23 | -1.16399 | -56.76860 | 37956 ft | 497 kts | 311° |
| 2026-04-21 03:23 | -1.11874 | -56.82069 | 37961 ft | 496 kts | 311° |
| 2026-04-21 03:24 | -1.07341 | -56.87285 | 37959 ft | 496 kts | 311° |
| 2026-04-21 03:24 | -1.02853 | -56.92450 | 37955 ft | 495 kts | 311° |
| 2026-04-21 03:25 | -0.98336 | -56.97648 | 37959 ft | 495 kts | 311° |
| 2026-04-21 03:25 | -0.93824 | -57.02838 | 37965 ft | 495 kts | 311° |
| 2026-04-21 03:26 | -0.89313 | -57.08029 | 37967 ft | 494 kts | 311° |
| 2026-04-21 03:26 | -0.84796 | -57.13227 | 37949 ft | 494 kts | 311° |
| 2026-04-21 03:27 | -0.80291 | -57.18410 | 37954 ft | 494 kts | 311° |
| 2026-04-21 03:27 | -0.75785 | -57.23594 | 37952 ft | 494 kts | 311° |
| 2026-04-21 03:28 | -0.71274 | -57.28784 | 37961 ft | 494 kts | 311° |
| 2026-04-21 03:28 | -0.66775 | -57.33960 | 37959 ft | 494 kts | 311° |
| 2026-04-21 03:29 | -0.62267 | -57.39146 | 37955 ft | 493 kts | 311° |
| 2026-04-21 03:29 | -0.57799 | -57.44285 | 37953 ft | 493 kts | 311° |
| 2026-04-21 03:30 | -0.53305 | -57.49455 | 37970 ft | 493 kts | 311° |
| 2026-04-21 03:30 | -0.48812 | -57.54623 | 37972 ft | 493 kts | 311° |
| 2026-04-21 03:31 | -0.44319 | -57.59792 | 37952 ft | 493 kts | 311° |
| 2026-04-21 03:31 | -0.39825 | -57.64960 | 37955 ft | 492 kts | 311° |
| 2026-04-21 03:32 | -0.35336 | -57.70124 | 37956 ft | 492 kts | 311° |
| 2026-04-21 03:32 | -0.30857 | -57.75276 | 37949 ft | 491 kts | 311° |
| 2026-04-21 03:33 | -0.26378 | -57.80427 | 37955 ft | 490 kts | 311° |
| 2026-04-21 03:33 | -0.22155 | -57.85285 | 37959 ft | 490 kts | 311° |
| 2026-04-21 03:34 | -0.17719 | -57.90387 | 37957 ft | 490 kts | 311° |
| 2026-04-21 03:34 | -0.13248 | -57.95530 | 37951 ft | 490 kts | 311° |
| 2026-04-21 03:35 | -0.08781 | -58.00667 | 37962 ft | 490 kts | 311° |
| 2026-04-21 03:35 | -0.04312 | -58.05808 | 37966 ft | 490 kts | 311° |
| 2026-04-21 03:36 | 0.00137 | -58.10925 | 37959 ft | 490 kts | 311° |
| 2026-04-21 03:36 | 0.04580 | -58.16034 | 37957 ft | 491 kts | 311° |
| 2026-04-21 03:37 | 0.09055 | -58.21181 | 37958 ft | 491 kts | 311° |
| 2026-04-21 03:37 | 0.13539 | -58.26339 | 37951 ft | 492 kts | 311° |
| 2026-04-21 03:38 | 0.18031 | -58.31505 | 37969 ft | 492 kts | 311° |
| 2026-04-21 03:38 | 0.22524 | -58.36672 | 37955 ft | 493 kts | 311° |
| 2026-04-21 03:39 | 0.27025 | -58.41850 | 37948 ft | 493 kts | 311° |
| 2026-04-21 03:39 | 0.31527 | -58.47028 | 37956 ft | 494 kts | 311° |
| 2026-04-21 03:40 | 0.36036 | -58.52214 | 37962 ft | 493 kts | 311° |
| 2026-04-21 03:40 | 0.40532 | -58.57386 | 37945 ft | 493 kts | 311° |
| 2026-04-21 03:41 | 0.45025 | -58.62554 | 37946 ft | 492 kts | 311° |
| 2026-04-21 03:41 | 0.49483 | -58.67682 | 37946 ft | 492 kts | 311° |
| 2026-04-21 03:42 | 0.53967 | -58.72840 | 37961 ft | 492 kts | 311° |
| 2026-04-21 03:42 | 0.58452 | -58.77999 | 37958 ft | 491 kts | 311° |
| 2026-04-21 03:43 | 0.62935 | -58.83156 | 37945 ft | 491 kts | 311° |
| 2026-04-21 03:43 | 0.67412 | -58.88306 | 37960 ft | 491 kts | 311° |
| 2026-04-21 03:44 | 0.71777 | -58.93328 | 37945 ft | 490 kts | 311° |
| 2026-04-21 03:44 | 0.76253 | -58.98477 | 37958 ft | 490 kts | 311° |
| 2026-04-21 03:45 | 0.80479 | -59.03339 | 37961 ft | 490 kts | 311° |
| 2026-04-21 03:45 | 0.84928 | -59.08458 | 37945 ft | 489 kts | 311° |
| 2026-04-21 03:46 | 0.89392 | -59.13596 | 37952 ft | 489 kts | 311° |
| 2026-04-21 03:46 | 0.93854 | -59.18729 | 37948 ft | 489 kts | 311° |
| 2026-04-21 03:47 | 0.98310 | -59.23856 | 37956 ft | 488 kts | 311° |
| 2026-04-21 03:47 | 1.02761 | -59.28978 | 37940 ft | 489 kts | 311° |
| 2026-04-21 03:48 | 1.07194 | -59.34079 | 37942 ft | 489 kts | 311° |
| 2026-04-21 03:48 | 1.11655 | -59.39213 | 37942 ft | 489 kts | 311° |
| 2026-04-21 03:49 | 1.16121 | -59.44353 | 37937 ft | 490 kts | 311° |
| 2026-04-21 03:49 | 1.20599 | -59.49508 | 37943 ft | 490 kts | 311° |
| 2026-04-21 03:50 | 1.25072 | -59.54656 | 37946 ft | 491 kts | 311° |
| 2026-04-21 03:50 | 1.29547 | -59.59807 | 37958 ft | 491 kts | 311° |
| 2026-04-21 03:51 | 1.34003 | -59.64937 | 37948 ft | 490 kts | 311° |
| 2026-04-21 03:51 | 1.38468 | -59.70077 | 37936 ft | 489 kts | 311° |
| 2026-04-21 03:52 | 1.42923 | -59.75206 | 37933 ft | 489 kts | 311° |
| 2026-04-21 03:52 | 1.47379 | -59.80337 | 37945 ft | 488 kts | 311° |
| 2026-04-21 03:53 | 1.51834 | -59.85467 | 37943 ft | 488 kts | 311° |
| 2026-04-21 03:53 | 1.56286 | -59.90593 | 37939 ft | 488 kts | 311° |
| 2026-04-21 03:54 | 1.60754 | -59.95738 | 37251 ft | 495 kts | 311° |
| 2026-04-21 03:54 | 1.63000 | -59.98325 | 36632 ft | 492 kts | 311° |
| 2026-04-21 03:54 | 1.65243 | -60.00909 | 35927 ft | 491 kts | 311° |
| 2026-04-21 03:55 | 1.66723 | -60.02614 | 35421 ft | 492 kts | 311° |
| 2026-04-21 03:55 | 1.68973 | -60.05205 | 34599 ft | 494 kts | 311° |
| 2026-04-21 03:55 | 1.71229 | -60.07803 | 33707 ft | 497 kts | 311° |
| 2026-04-21 03:55 | 1.73505 | -60.10425 | 32729 ft | 499 kts | 311° |
| 2026-04-21 03:56 | 1.75780 | -60.13046 | 31802 ft | 499 kts | 311° |
| 2026-04-21 03:56 | 1.78060 | -60.15673 | 30798 ft | 501 kts | 311° |
| 2026-04-21 03:56 | 1.80350 | -60.18311 | 29748 ft | 502 kts | 311° |
| 2026-04-21 03:56 | 1.82625 | -60.20932 | 28799 ft | 494 kts | 311° |
| 2026-04-21 03:57 | 1.84859 | -60.23506 | 27444 ft | 497 kts | 311° |
| 2026-04-21 03:57 | 1.87154 | -60.26149 | 26169 ft | 498 kts | 310° |
| 2026-04-21 03:57 | 1.89386 | -60.28722 | 25165 ft | 494 kts | 310° |
| 2026-04-21 03:57 | 1.91646 | -60.31325 | 24235 ft | 487 kts | 310° |
| 2026-04-21 03:58 | 1.93822 | -60.33833 | 23481 ft | 479 kts | 310° |
| 2026-04-21 03:58 | 1.95985 | -60.36326 | 22364 ft | 474 kts | 310° |
| 2026-04-21 03:58 | 1.98123 | -60.38789 | 21601 ft | 462 kts | 310° |
| 2026-04-21 03:58 | 2.00231 | -60.41219 | 20581 ft | 459 kts | 310° |
| 2026-04-21 03:59 | 2.02293 | -60.43596 | 19717 ft | 450 kts | 310° |
| 2026-04-21 03:59 | 2.04339 | -60.45955 | 18921 ft | 445 kts | 310° |
| 2026-04-21 03:59 | 2.06353 | -60.48276 | 18026 ft | 439 kts | 310° |
| 2026-04-21 04:00 | 2.10302 | -60.52830 | 16334 ft | 427 kts | 310° |
| 2026-04-21 04:00 | 2.12239 | -60.55063 | 15470 ft | 422 kts | 310° |
| 2026-04-21 04:00 | 2.14156 | -60.57273 | 14611 ft | 419 kts | 310° |
| 2026-04-21 04:00 | 2.16063 | -60.59467 | 13766 ft | 416 kts | 311° |
| 2026-04-21 04:01 | 2.18149 | -60.61442 | 12818 ft | 407 kts | 321° |
| 2026-04-21 04:01 | 2.20454 | -60.62959 | 11741 ft | 398 kts | 331° |
| 2026-04-21 04:01 | 2.22957 | -60.64078 | 10718 ft | 390 kts | 340° |
| 2026-04-21 04:01 | 2.25396 | -60.64936 | 10668 ft | 356 kts | 340° |
| 2026-04-21 04:02 | 2.27647 | -60.65740 | 10509 ft | 332 kts | 340° |
| 2026-04-21 04:02 | 2.29772 | -60.66507 | 10371 ft | 317 kts | 340° |
| 2026-04-21 04:02 | 2.31819 | -60.67251 | 10263 ft | 312 kts | 340° |
| 2026-04-21 04:02 | 2.33869 | -60.67999 | 10154 ft | 313 kts | 340° |
| 2026-04-21 04:03 | 2.35880 | -60.68734 | 10022 ft | 302 kts | 340° |
| 2026-04-21 04:03 | 2.37812 | -60.69442 | 9912 ft | 290 kts | 340° |
| 2026-04-21 04:03 | 2.39737 | -60.70156 | 9317 ft | 296 kts | 340° |
| 2026-04-21 04:03 | 2.41642 | -60.70855 | 9027 ft | 291 kts | 340° |
| 2026-04-21 04:04 | 2.43538 | -60.71547 | 8695 ft | 289 kts | 340° |
| 2026-04-21 04:04 | 2.45399 | -60.72227 | 8318 ft | 288 kts | 340° |
| 2026-04-21 04:04 | 2.47273 | -60.72913 | 7969 ft | 286 kts | 341° |
| 2026-04-21 04:04 | 2.49141 | -60.73596 | 7619 ft | 285 kts | 341° |
| 2026-04-21 04:05 | 2.51008 | -60.74281 | 7238 ft | 284 kts | 341° |
| 2026-04-21 04:05 | 2.52864 | -60.74961 | 6856 ft | 285 kts | 341° |
| 2026-04-21 04:05 | 2.54721 | -60.75642 | 6517 ft | 283 kts | 342° |
| 2026-04-21 04:05 | 2.56572 | -60.76321 | 6135 ft | 283 kts | 342° |
| 2026-04-21 04:06 | 2.58418 | -60.76998 | 5758 ft | 282 kts | 342° |
| 2026-04-21 04:06 | 2.60252 | -60.77671 | 5389 ft | 280 kts | 342° |
| 2026-04-21 04:06 | 2.62079 | -60.78341 | 5050 ft | 277 kts | 342° |
| 2026-04-21 04:06 | 2.63889 | -60.79005 | 4708 ft | 276 kts | 342° |
| 2026-04-21 04:07 | 2.65684 | -60.79664 | 4345 ft | 274 kts | 342° |
| 2026-04-21 04:07 | 2.67453 | -60.80314 | 4153 ft | 265 kts | 342° |
| 2026-04-21 04:07 | 2.69105 | -60.81076 | 4022 ft | 257 kts | 335° |
| 2026-04-21 04:07 | 2.70655 | -60.81894 | 3899 ft | 247 kts | 335° |
| 2026-04-21 04:08 | 2.72132 | -60.82672 | 3792 ft | 238 kts | 335° |
| 2026-04-21 04:08 | 2.73572 | -60.83420 | 3693 ft | 228 kts | 336° |
| 2026-04-21 04:08 | 2.74961 | -60.84116 | 3515 ft | 218 kts | 343° |
| 2026-04-21 04:08 | 2.76368 | -60.84130 | 3278 ft | 196 kts | 27° |
| 2026-04-21 04:09 | 2.77323 | -60.83267 | 3063 ft | 181 kts | 58° |
| 2026-04-21 04:09 | 2.77916 | -60.82200 | 2824 ft | 173 kts | 62° |
| 2026-04-21 04:09 | 2.78455 | -60.81153 | 2605 ft | 167 kts | 63° |
| 2026-04-21 04:09 | 2.78973 | -60.80133 | 2387 ft | 160 kts | 63° |
| 2026-04-21 04:10 | 2.79471 | -60.79152 | 2203 ft | 157 kts | 63° |
| 2026-04-21 04:10 | 2.79954 | -60.78203 | 1995 ft | 146 kts | 64° |
| 2026-04-21 04:10 | 2.80392 | -60.77343 | 1794 ft | 133 kts | 64° |
| 2026-04-21 04:10 | 2.80798 | -60.76543 | 1646 ft | 126 kts | 64° |
| 2026-04-21 04:11 | 2.81194 | -60.75764 | 1486 ft | 129 kts | 64° |
| 2026-04-21 04:11 | 2.81604 | -60.74957 | 1318 ft | 130 kts | 64° |
| 2026-04-21 04:11 | 2.82004 | -60.74151 | 1164 ft | 131 kts | 65° |
| 2026-04-21 04:11 | 2.82425 | -60.73327 | 992 ft | 136 kts | 64° |
| 2026-04-21 04:12 | 2.82865 | -60.72472 | 818 ft | 140 kts | 64° |
| 2026-04-21 04:12 | 2.83305 | -60.71611 | 640 ft | 138 kts | 66° |
| 2026-04-21 04:12 | 2.83744 | -60.70747 | 451 ft | 140 kts | 66° |
| 2026-04-21 04:12 | 2.84181 | -60.69887 | 297 ft | 137 kts | 66° |
| 2026-04-21 04:13 | 2.84573 | -60.69117 | 279 ft | 104 kts | 63° |
| 2026-04-21 04:13 | 2.84814 | -60.68648 | 280 ft | 42 kts | 63° |
| 2026-04-21 04:13 | 2.84885 | -60.68485 | 279 ft | 14 kts | 105° |
| 2026-04-21 04:13 | 2.84846 | -60.68457 | 279 ft | 4 kts | 153° |
| 2026-04-21 04:14 | 2.84829 | -60.68446 | 279 ft | 2 kts | 147° |
| 2026-04-21 04:14 | 2.84816 | -60.68438 | 282 ft | 3 kts | 148° |
| 2026-04-21 04:14 | 2.84797 | -60.68427 | 279 ft | 4 kts | 150° |
| 2026-04-21 04:14 | 2.84770 | -60.68421 | 279 ft | 4 kts | 199° |
| 2026-04-21 04:15 | 2.84739 | -60.68466 | 279 ft | 11 kts | 243° |
| 2026-04-21 04:15 | 2.84704 | -60.68537 | 279 ft | 11 kts | 243° |
| 2026-04-21 04:15 | 2.84672 | -60.68599 | 283 ft | 9 kts | 243° |
| 2026-04-21 04:15 | 2.84649 | -60.68644 | 279 ft | 5 kts | 243° |
| 2026-04-21 04:16 | 2.84645 | -60.68652 | 279 ft | 0 kts | 240° |
| 2026-04-21 04:16 | 2.84635 | -60.68670 | 279 ft | 7 kts | 242° |
| 2026-04-21 04:16 | 2.84601 | -60.68737 | 279 ft | 13 kts | 243° |
| 2026-04-21 04:16 | 2.84555 | -60.68828 | 282 ft | 17 kts | 243° |
| 2026-04-21 04:17 | 2.84495 | -60.68943 | 279 ft | 20 kts | 242° |
| 2026-04-21 04:17 | 2.84430 | -60.69069 | 279 ft | 15 kts | 242° |
| 2026-04-21 04:17 | 2.84378 | -60.69168 | 280 ft | 16 kts | 242° |
| 2026-04-21 04:17 | 2.84333 | -60.69237 | 278 ft | 7 kts | 194° |
| 2026-04-21 04:18 | 2.84286 | -60.69240 | 280 ft | 7 kts | 221° |
| 2026-04-21 04:18 | 2.84256 | -60.69292 | 278 ft | 10 kts | 244° |
| 2026-04-21 04:18 | 2.84224 | -60.69309 | 278 ft | 4 kts | 160° |
| 2026-04-21 04:18 | 2.84191 | -60.69293 | 278 ft | 1 kts | 153° |
| 2026-04-21 04:19 | 2.84186 | -60.69290 | 278 ft | 0 kts | 152° |
| 2026-04-21 04:19 | 2.84185 | -60.69290 | 278 ft | 1 kts | 152° |
| 2026-04-21 04:19 | 2.84181 | -60.69288 | 282 ft | 0 kts | 153° |